Hauptseite
METAR-TAF:

METAR-TAF

Flughäfen :

Muir Army Airfield

Fort Indiantown Gap, Pennsylvania, Vereinigte Staaten

Breite: 40-26N, Länge: 076-34W, Höhe: 149 m

Beobachtung

Neuester Wetterbericht von vor 43 Minuten, um 01:56 UTC
Wind 6 kt aus Süd
Temperatur 18°C
Luftfeuchtigkeit 77%
Luftdruck 1023 hPa
Sichtweite: 16.1 km
Durchbrochene Bewölkung in der Höhe von 2900 ft
Geschlossene Wolkendecke in der Höhe von 3500 ft

METAR: KMUI 250156Z AUTO 18006KT 10SM BKN029 OVC035 18/14 A3020 RMK AO2 SLP229 T01840135 $

Zeit: 22:39 (02:39 UTC)


TAF: fehlend

Wetterbeobachtungen und Prognosen von mehr als 4000 Flughäfen (METAR und TAF Bericht).

Die verfügbaren Stationen werden durch gelbe und rote Markierungen auf der Karte dargestellt.

Führen Sie die Maus auf sie, um den Namen der Station zu sehen.

Darauf klicken, um die Beobachtung von Wetterbeobachtungen und Prognosen zu sehen.

Um die Karte zu ändern : klicken Sie auf den grünen Tasten mit einem schwarzen Kreuz Zum Vergrößern, auf den grünen Button mit einem Gedankenstrich zu verkleinern, oder auf die grünen Pfeile für benachbarte Karten.


METAR-TAF: